sensor_id;sensor_type;location;lat;lon;timestamp;pressure;altitude;pressure_sealevel;temperature;humidity
31775;BME280;66189;49.000;11.640;2023-04-19T00:01:39;96506.66;;;6.94;82.05
31775;BME280;66189;49.000;11.640;2023-04-19T00:03:40;96500.53;;;6.94;81.87
31775;BME280;66189;49.000;11.640;2023-04-19T00:05:40;96502.88;;;6.96;81.70
31775;BME280;66189;49.000;11.640;2023-04-19T00:07:41;96503.66;;;6.96;81.69
31775;BME280;66189;49.000;11.640;2023-04-19T00:09:42;96501.75;;;6.97;81.58
31775;BME280;66189;49.000;11.640;2023-04-19T00:11:42;96497.03;;;6.93;81.61
31775;BME280;66189;49.000;11.640;2023-04-19T00:13:43;96500.22;;;6.96;81.63
31775;BME280;66189;49.000;11.640;2023-04-19T00:15:43;96498.00;;;6.98;81.65
31775;BME280;66189;49.000;11.640;2023-04-19T00:17:43;96495.31;;;6.98;81.33
31775;BME280;66189;49.000;11.640;2023-04-19T00:19:44;96494.66;;;7.01;80.97
31775;BME280;66189;49.000;11.640;2023-04-19T00:21:44;96490.59;;;6.94;81.35
31775;BME280;66189;49.000;11.640;2023-04-19T00:23:44;96494.38;;;6.93;81.44
31775;BME280;66189;49.000;11.640;2023-04-19T00:25:45;96487.00;;;6.90;81.38
31775;BME280;66189;49.000;11.640;2023-04-19T00:27:45;96490.59;;;6.94;81.55
31775;BME280;66189;49.000;11.640;2023-04-19T00:29:45;96483.97;;;7.01;81.49
31775;BME280;66189;49.000;11.640;2023-04-19T00:31:45;96479.59;;;6.96;81.51
31775;BME280;66189;49.000;11.640;2023-04-19T00:33:46;96479.59;;;6.96;81.04
31775;BME280;66189;49.000;11.640;2023-04-19T00:35:46;96479.25;;;6.98;81.11
31775;BME280;66189;49.000;11.640;2023-04-19T00:37:47;96481.00;;;6.93;81.43
31775;BME280;66189;49.000;11.640;2023-04-19T00:39:47;96475.66;;;6.93;81.45
31775;BME280;66189;49.000;11.640;2023-04-19T00:41:47;96476.44;;;6.94;81.20
31775;BME280;66189;49.000;11.640;2023-04-19T00:43:47;96471.44;;;6.92;81.08
31775;BME280;66189;49.000;11.640;2023-04-19T00:45:48;96472.06;;;6.89;81.59
31775;BME280;66189;49.000;11.640;2023-04-19T00:47:48;96472.06;;;6.89;81.33
31775;BME280;66189;49.000;11.640;2023-04-19T00:49:49;96469.38;;;6.89;81.17
31775;BME280;66189;49.000;11.640;2023-04-19T00:51:49;96465.13;;;6.88;81.14
31775;BME280;66189;49.000;11.640;2023-04-19T00:53:50;96469.88;;;6.83;81.36
31775;BME280;66189;49.000;11.640;2023-04-19T00:55:52;96465.00;;;6.85;81.38
31775;BME280;66189;49.000;11.640;2023-04-19T00:57:53;96478.22;;;6.81;81.59
31775;BME280;66189;49.000;11.640;2023-04-19T00:59:54;96467.50;;;6.81;81.55
31775;BME280;66189;49.000;11.640;2023-04-19T01:01:56;96466.25;;;6.79;81.51
31775;BME280;66189;49.000;11.640;2023-04-19T01:03:56;96466.56;;;6.77;81.77
31775;BME280;66189;49.000;11.640;2023-04-19T01:05:56;96465.47;;;6.78;81.70
31775;BME280;66189;49.000;11.640;2023-04-19T01:07:57;96463.31;;;6.71;81.75
31775;BME280;66189;49.000;11.640;2023-04-19T01:09:57;96462.81;;;6.78;81.66
31775;BME280;66189;49.000;11.640;2023-04-19T01:11:58;96459.34;;;6.78;81.31
31775;BME280;66189;49.000;11.640;2023-04-19T01:13:58;96461.41;;;6.72;81.50
31775;BME280;66189;49.000;11.640;2023-04-19T01:15:59;96452.94;;;6.70;81.70
31775;BME280;66189;49.000;11.640;2023-04-19T01:17:59;96446.00;;;6.69;81.68
31775;BME280;66189;49.000;11.640;2023-04-19T01:20:01;96454.81;;;6.69;81.85
31775;BME280;66189;49.000;11.640;2023-04-19T01:22:03;96444.94;;;6.61;82.21
31775;BME280;66189;49.000;11.640;2023-04-19T01:24:05;96447.75;;;6.65;81.87
31775;BME280;66189;49.000;11.640;2023-04-19T01:26:06;96444.00;;;6.57;82.06
31775;BME280;66189;49.000;11.640;2023-04-19T01:28:06;96440.38;;;6.62;81.92
31775;BME280;66189;49.000;11.640;2023-04-19T01:30:07;96440.25;;;6.49;82.21
31775;BME280;66189;49.000;11.640;2023-04-19T01:32:07;96433.19;;;6.45;82.15
31775;BME280;66189;49.000;11.640;2023-04-19T01:34:07;96431.59;;;6.44;82.06
31775;BME280;66189;49.000;11.640;2023-04-19T01:36:08;96431.28;;;6.45;82.04
31775;BME280;66189;49.000;11.640;2023-04-19T01:38:08;96432.56;;;6.39;81.81
31775;BME280;66189;49.000;11.640;2023-04-19T01:40:08;96432.41;;;6.35;82.60
31775;BME280;66189;49.000;11.640;2023-04-19T01:42:10;96429.59;;;6.32;82.30
31775;BME280;66189;49.000;11.640;2023-04-19T01:44:10;96422.84;;;6.26;82.64
31775;BME280;66189;49.000;11.640;2023-04-19T01:46:11;96428.19;;;6.26;82.77
31775;BME280;66189;49.000;11.640;2023-04-19T01:48:11;96427.41;;;6.16;82.73
31775;BME280;66189;49.000;11.640;2023-04-19T01:50:11;96418.75;;;6.19;82.72
31775;BME280;66189;49.000;11.640;2023-04-19T01:52:12;96418.16;;;6.14;82.45
31775;BME280;66189;49.000;11.640;2023-04-19T01:54:12;96415.63;;;6.17;82.72
31775;BME280;66189;49.000;11.640;2023-04-19T01:56:12;96416.72;;;6.16;82.36
31775;BME280;66189;49.000;11.640;2023-04-19T01:58:13;96412.97;;;6.17;82.43
31775;BME280;66189;49.000;11.640;2023-04-19T02:00:13;96415.00;;;6.20;82.10
31775;BME280;66189;49.000;11.640;2023-04-19T02:02:17;96418.31;;;6.17;82.24
31775;BME280;66189;49.000;11.640;2023-04-19T02:04:18;96421.44;;;6.19;82.18
31775;BME280;66189;49.000;11.640;2023-04-19T02:06:19;96414.84;;;6.17;82.29
31775;BME280;66189;49.000;11.640;2023-04-19T02:08:19;96420.97;;;6.17;82.13
31775;BME280;66189;49.000;11.640;2023-04-19T02:10:20;96419.88;;;6.18;81.84
31775;BME280;66189;49.000;11.640;2023-04-19T02:12:20;96415.16;;;6.15;81.94
31775;BME280;66189;49.000;11.640;2023-04-19T02:14:21;96414.69;;;6.13;81.84
31775;BME280;66189;49.000;11.640;2023-04-19T02:16:21;96416.13;;;6.11;82.17
31775;BME280;66189;49.000;11.640;2023-04-19T02:18:23;96401.69;;;6.03;82.36
31775;BME280;66189;49.000;11.640;2023-04-19T02:20:25;96416.91;;;6.02;82.13
31775;BME280;66189;49.000;11.640;2023-04-19T02:22:25;96410.13;;;5.96;82.74
31775;BME280;66189;49.000;11.640;2023-04-19T02:24:26;96409.84;;;5.98;82.29
31775;BME280;66189;49.000;11.640;2023-04-19T02:26:26;96404.63;;;5.93;82.01
31775;BME280;66189;49.000;11.640;2023-04-19T02:28:26;96412.66;;;5.93;82.23
31775;BME280;66189;49.000;11.640;2023-04-19T02:30:26;96404.97;;;5.91;82.33
31775;BME280;66189;49.000;11.640;2023-04-19T02:32:27;96401.81;;;5.89;82.33
31775;BME280;66189;49.000;11.640;2023-04-19T02:34:27;96396.16;;;5.91;82.51
31775;BME280;66189;49.000;11.640;2023-04-19T02:36:27;96390.81;;;5.91;82.78
31775;BME280;66189;49.000;11.640;2023-04-19T02:38:28;96383.13;;;5.89;82.66
31775;BME280;66189;49.000;11.640;2023-04-19T02:40:29;96388.47;;;5.89;82.53
31775;BME280;66189;49.000;11.640;2023-04-19T02:42:32;96385.50;;;5.91;82.58
31775;BME280;66189;49.000;11.640;2023-04-19T02:44:32;96379.19;;;5.86;82.58
31775;BME280;66189;49.000;11.640;2023-04-19T02:46:33;96382.97;;;5.85;82.43
31775;BME280;66189;49.000;11.640;2023-04-19T02:48:33;96380.59;;;5.84;82.60
31775;BME280;66189;49.000;11.640;2023-04-19T02:50:35;96382.34;;;5.80;82.62
31775;BME280;66189;49.000;11.640;2023-04-19T02:52:36;96381.41;;;5.76;82.65
31775;BME280;66189;49.000;11.640;2023-04-19T02:54:37;96380.59;;;5.75;82.91
31775;BME280;66189;49.000;11.640;2023-04-19T02:56:37;96377.47;;;5.82;82.45
31775;BME280;66189;49.000;11.640;2023-04-19T02:58:37;96379.84;;;5.75;82.72
31775;BME280;66189;49.000;11.640;2023-04-19T03:00:39;96376.38;;;5.74;82.80
31775;BME280;66189;49.000;11.640;2023-04-19T03:02:44;96376.69;;;5.73;82.87
31775;BME280;66189;49.000;11.640;2023-04-19T03:04:45;96371.38;;;5.73;82.83
31775;BME280;66189;49.000;11.640;2023-04-19T03:06:46;96364.28;;;5.77;82.75
31775;BME280;66189;49.000;11.640;2023-04-19T03:08:46;96366.03;;;5.73;82.96
31775;BME280;66189;49.000;11.640;2023-04-19T03:10:49;96372.78;;;5.70;82.84
31775;BME280;66189;49.000;11.640;2023-04-19T03:12:49;96367.44;;;5.70;82.69
31775;BME280;66189;49.000;11.640;2023-04-19T03:14:50;96362.25;;;5.65;82.79
31775;BME280;66189;49.000;11.640;2023-04-19T03:16:51;96362.91;;;5.62;82.30
31775;BME280;66189;49.000;11.640;2023-04-19T03:18:51;96362.91;;;5.62;82.63
31775;BME280;66189;49.000;11.640;2023-04-19T03:20:56;96360.84;;;5.59;83.21
31775;BME280;66189;49.000;11.640;2023-04-19T03:22:56;96350.97;;;5.59;82.91
31775;BME280;66189;49.000;11.640;2023-04-19T03:24:58;96350.19;;;5.59;83.07
31775;BME280;66189;49.000;11.640;2023-04-19T03:26:58;96349.88;;;5.60;82.71
31775;BME280;66189;49.000;11.640;2023-04-19T03:29:02;96352.34;;;5.57;83.28
31775;BME280;66189;49.000;11.640;2023-04-19T03:31:22;96339.66;;;5.54;83.27
31775;BME280;66189;49.000;11.640;2023-04-19T03:33:24;96341.84;;;5.51;83.31
31775;BME280;66189;49.000;11.640;2023-04-19T03:35:25;96341.22;;;5.55;83.04
31775;BME280;66189;49.000;11.640;2023-04-19T03:37:31;96336.84;;;5.50;83.10
31775;BME280;66189;49.000;11.640;2023-04-19T03:39:32;96338.88;;;5.44;83.40
31775;BME280;66189;49.000;11.640;2023-04-19T03:41:36;96327.72;;;5.42;83.55
31775;BME280;66189;49.000;11.640;2023-04-19T03:43:47;96333.22;;;5.46;83.36
31775;BME280;66189;49.000;11.640;2023-04-19T03:45:48;96334.63;;;5.43;83.41
31775;BME280;66189;49.000;11.640;2023-04-19T03:47:48;96331.50;;;5.41;83.38
31775;BME280;66189;49.000;11.640;2023-04-19T03:49:48;96326.16;;;5.41;83.36
31775;BME280;66189;49.000;11.640;2023-04-19T03:51:50;96321.91;;;5.40;83.42
31775;BME280;66189;49.000;11.640;2023-04-19T03:53:51;96328.81;;;5.41;83.51
31775;BME280;66189;49.000;11.640;2023-04-19T03:55:52;96326.78;;;5.38;83.55
31775;BME280;66189;49.000;11.640;2023-04-19T03:57:53;96327.88;;;5.37;83.95
31775;BME280;66189;49.000;11.640;2023-04-19T04:00:03;96327.41;;;5.35;83.99
31775;BME280;66189;49.000;11.640;2023-04-19T04:02:14;96321.63;;;5.33;83.56
31775;BME280;66189;49.000;11.640;2023-04-19T04:04:14;96321.28;;;5.26;83.71
31775;BME280;66189;49.000;11.640;2023-04-19T04:06:14;96325.03;;;5.16;83.40
31775;BME280;66189;49.000;11.640;2023-04-19T04:08:15;96320.78;;;4.97;83.63
31775;BME280;66189;49.000;11.640;2023-04-19T04:10:15;96323.44;;;4.97;84.82
31775;BME280;66189;49.000;11.640;2023-04-19T04:12:16;96320.75;;;4.89;84.15
31775;BME280;66189;49.000;11.640;2023-04-19T04:14:17;96321.22;;;4.82;83.64
31775;BME280;66189;49.000;11.640;2023-04-19T04:16:17;96320.75;;;4.71;83.01
31775;BME280;66189;49.000;11.640;2023-04-19T04:18:18;96327.31;;;4.65;83.98
31775;BME280;66189;49.000;11.640;2023-04-19T04:20:18;96322.94;;;4.69;84.76
31775;BME280;66189;49.000;11.640;2023-04-19T04:22:19;96328.13;;;4.74;85.02
31775;BME280;66189;49.000;11.640;2023-04-19T04:24:19;96326.72;;;4.86;85.17
31775;BME280;66189;49.000;11.640;2023-04-19T04:26:47;96322.19;;;4.95;85.36
31775;BME280;66189;49.000;11.640;2023-04-19T04:28:55;96323.47;;;5.06;85.36
31775;BME280;66189;49.000;11.640;2023-04-19T04:30:56;96327.56;;;5.12;85.28
31775;BME280;66189;49.000;11.640;2023-04-19T04:32:57;96327.88;;;5.11;85.07
31775;BME280;66189;49.000;11.640;2023-04-19T04:34:58;96325.84;;;5.16;85.00
31775;BME280;66189;49.000;11.640;2023-04-19T04:37:07;96331.31;;;5.20;84.69
31775;BME280;66189;49.000;11.640;2023-04-19T04:39:08;96336.34;;;5.22;84.79
31775;BME280;66189;49.000;11.640;2023-04-19T04:41:11;96326.75;;;5.21;84.17
31775;BME280;66189;49.000;11.640;2023-04-19T04:43:11;96327.56;;;5.21;83.98
31775;BME280;66189;49.000;11.640;2023-04-19T04:45:12;96319.06;;;5.19;84.36
31775;BME280;66189;49.000;11.640;2023-04-19T04:47:15;96321.13;;;5.13;84.01
31775;BME280;66189;49.000;11.640;2023-04-19T04:49:23;96324.88;;;5.12;83.83
31775;BME280;66189;49.000;11.640;2023-04-19T04:51:23;96319.53;;;5.04;84.29
31775;BME280;66189;49.000;11.640;2023-04-19T04:53:26;96324.72;;;5.00;84.49
31775;BME280;66189;49.000;11.640;2023-04-19T04:55:27;96331.13;;;4.99;84.36
31775;BME280;66189;49.000;11.640;2023-04-19T04:57:27;96326.59;;;5.00;84.80
31775;BME280;66189;49.000;11.640;2023-04-19T04:59:28;96325.19;;;5.02;84.70
31775;BME280;66189;49.000;11.640;2023-04-19T05:01:28;96331.63;;;5.10;84.57
31775;BME280;66189;49.000;11.640;2023-04-19T05:03:29;96328.19;;;5.18;84.71
31775;BME280;66189;49.000;11.640;2023-04-19T05:05:32;96323.00;;;5.22;84.64
31775;BME280;66189;49.000;11.640;2023-04-19T05:07:32;96328.81;;;5.24;85.40
31775;BME280;66189;49.000;11.640;2023-04-19T05:09:35;96322.56;;;5.28;85.37
31775;BME280;66189;49.000;11.640;2023-04-19T05:11:36;96320.34;;;5.30;85.07
31775;BME280;66189;49.000;11.640;2023-04-19T05:13:36;96327.56;;;5.39;85.25
31775;BME280;66189;49.000;11.640;2023-04-19T05:15:37;96321.28;;;5.43;85.01
31775;BME280;66189;49.000;11.640;2023-04-19T05:17:38;96325.84;;;5.51;84.82
31775;BME280;66189;49.000;11.640;2023-04-19T05:19:38;96323.00;;;5.57;84.68
31775;BME280;66189;49.000;11.640;2023-04-19T05:21:40;96325.84;;;5.60;84.57
31775;BME280;66189;49.000;11.640;2023-04-19T05:23:42;96322.38;;;5.60;84.51
31775;BME280;66189;49.000;11.640;2023-04-19T05:25:43;96319.06;;;5.63;84.53
31775;BME280;66189;49.000;11.640;2023-04-19T05:27:43;96324.25;;;5.59;84.91
31775;BME280;66189;49.000;11.640;2023-04-19T05:29:44;96320.00;;;5.67;84.84
31775;BME280;66189;49.000;11.640;2023-04-19T05:31:45;96316.09;;;5.73;85.16
31775;BME280;66189;49.000;11.640;2023-04-19T05:33:57;96321.56;;;5.85;85.07
31775;BME280;66189;49.000;11.640;2023-04-19T05:35:57;96321.22;;;5.96;85.16
31775;BME280;66189;49.000;11.640;2023-04-19T05:37:58;96325.47;;;6.05;85.01
31775;BME280;66189;49.000;11.640;2023-04-19T05:39:58;96318.06;;;6.11;84.87
31775;BME280;66189;49.000;11.640;2023-04-19T05:41:58;96309.72;;;6.21;84.55
31775;BME280;66189;49.000;11.640;2023-04-19T05:43:59;96312.69;;;6.20;84.08
31775;BME280;66189;49.000;11.640;2023-04-19T05:46:00;96311.31;;;6.14;83.60
31775;BME280;66189;49.000;11.640;2023-04-19T05:48:00;96319.97;;;6.11;83.39
31775;BME280;66189;49.000;11.640;2023-04-19T05:50:19;96302.53;;;5.96;83.92
31775;BME280;66189;49.000;11.640;2023-04-19T05:52:35;96306.03;;;5.79;84.03
31775;BME280;66189;49.000;11.640;2023-04-19T05:54:37;96307.25;;;5.81;84.27
31775;BME280;66189;49.000;11.640;2023-04-19T05:56:38;96307.91;;;5.78;84.40
31775;BME280;66189;49.000;11.640;2023-04-19T05:58:39;96313.22;;;5.78;85.09
31775;BME280;66189;49.000;11.640;2023-04-19T06:00:40;96303.06;;;5.72;84.91
31775;BME280;66189;49.000;11.640;2023-04-19T06:02:45;96306.81;;;5.70;85.40
31775;BME280;66189;49.000;11.640;2023-04-19T06:04:47;96309.50;;;5.62;85.73
31775;BME280;66189;49.000;11.640;2023-04-19T06:06:48;96310.28;;;5.71;86.12
31775;BME280;66189;49.000;11.640;2023-04-19T06:08:48;96309.78;;;5.69;86.04
31775;BME280;66189;49.000;11.640;2023-04-19T06:10:49;96310.88;;;5.85;86.08
31775;BME280;66189;49.000;11.640;2023-04-19T06:12:49;96304.13;;;5.79;85.37
31775;BME280;66189;49.000;11.640;2023-04-19T06:14:50;96299.09;;;5.86;85.69
31775;BME280;66189;49.000;11.640;2023-04-19T06:16:51;96303.50;;;6.00;85.92
31775;BME280;66189;49.000;11.640;2023-04-19T06:18:51;96301.41;;;6.05;85.57
31775;BME280;66189;49.000;11.640;2023-04-19T06:20:54;96299.38;;;6.11;85.37
31775;BME280;66189;49.000;11.640;2023-04-19T06:22:54;96300.13;;;6.20;85.09
31775;BME280;66189;49.000;11.640;2023-04-19T06:24:55;96301.06;;;6.16;85.62
31775;BME280;66189;49.000;11.640;2023-04-19T06:26:55;96294.75;;;6.29;85.36
31775;BME280;66189;49.000;11.640;2023-04-19T06:28:56;96295.41;;;6.17;84.82
31775;BME280;66189;49.000;11.640;2023-04-19T06:30:56;96288.00;;;6.23;84.87
31775;BME280;66189;49.000;11.640;2023-04-19T06:32:56;96294.31;;;6.18;85.23
31775;BME280;66189;49.000;11.640;2023-04-19T06:34:57;96293.50;;;6.27;84.90
31775;BME280;66189;49.000;11.640;2023-04-19T06:36:57;96293.66;;;6.30;84.87
31775;BME280;66189;49.000;11.640;2023-04-19T06:38:57;96294.09;;;6.32;84.81
31775;BME280;66189;49.000;11.640;2023-04-19T06:40:57;96293.47;;;6.35;84.88
31775;BME280;66189;49.000;11.640;2023-04-19T06:42:58;96285.66;;;6.21;84.91
31775;BME280;66189;49.000;11.640;2023-04-19T06:44:58;96285.78;;;6.34;85.11
31775;BME280;66189;49.000;11.640;2023-04-19T06:46:58;96287.81;;;6.28;85.01
31775;BME280;66189;49.000;11.640;2023-04-19T06:48:58;96292.06;;;6.38;85.13
31775;BME280;66189;49.000;11.640;2023-04-19T06:50:59;96282.41;;;6.46;84.75
31775;BME280;66189;49.000;11.640;2023-04-19T06:52:59;96282.66;;;6.32;84.86
31775;BME280;66189;49.000;11.640;2023-04-19T06:54:59;96281.34;;;6.38;85.04
31775;BME280;66189;49.000;11.640;2023-04-19T06:57:00;96281.34;;;6.38;85.01
31775;BME280;66189;49.000;11.640;2023-04-19T06:59:02;96281.81;;;6.40;85.08
31775;BME280;66189;49.000;11.640;2023-04-19T07:01:03;96279.13;;;6.40;85.24
31775;BME280;66189;49.000;11.640;2023-04-19T07:03:03;96275.13;;;6.55;85.10
31775;BME280;66189;49.000;11.640;2023-04-19T07:05:04;96278.09;;;6.62;84.64
31775;BME280;66189;49.000;11.640;2023-04-19T07:07:04;96275.19;;;6.76;84.75
31775;BME280;66189;49.000;11.640;2023-04-19T07:09:05;96275.56;;;6.87;84.80
31775;BME280;66189;49.000;11.640;2023-04-19T07:11:06;96266.97;;;6.81;83.95
31775;BME280;66189;49.000;11.640;2023-04-19T07:13:06;96277.72;;;6.93;84.39
31775;BME280;66189;49.000;11.640;2023-04-19T07:15:06;96269.91;;;7.09;83.95
31775;BME280;66189;49.000;11.640;2023-04-19T07:17:07;96267.19;;;7.18;83.67
31775;BME280;66189;49.000;11.640;2023-04-19T07:19:07;96272.31;;;7.23;83.69
31775;BME280;66189;49.000;11.640;2023-04-19T07:21:07;96271.00;;;7.29;83.31
31775;BME280;66189;49.000;11.640;2023-04-19T07:23:08;96265.00;;;7.33;83.28
31775;BME280;66189;49.000;11.640;2023-04-19T07:25:08;96262.72;;;7.22;83.51
31775;BME280;66189;49.000;11.640;2023-04-19T07:27:09;96263.75;;;7.30;83.31
31775;BME280;66189;49.000;11.640;2023-04-19T07:29:09;96259.53;;;7.29;82.97
31775;BME280;66189;49.000;11.640;2023-04-19T07:31:15;96260.19;;;7.26;83.28
31775;BME280;66189;49.000;11.640;2023-04-19T07:33:16;96254.75;;;7.35;84.13
31775;BME280;66189;49.000;11.640;2023-04-19T07:35:16;96256.91;;;7.41;84.21
31775;BME280;66189;49.000;11.640;2023-04-19T07:37:17;96254.81;;;7.47;83.78
31775;BME280;66189;49.000;11.640;2023-04-19T07:39:17;96254.56;;;7.40;83.28
31775;BME280;66189;49.000;11.640;2023-04-19T07:41:18;96253.94;;;7.55;83.47
31775;BME280;66189;49.000;11.640;2023-04-19T07:43:18;96259.06;;;7.60;82.87
31775;BME280;66189;49.000;11.640;2023-04-19T07:45:18;96250.19;;;7.69;82.75
31775;BME280;66189;49.000;11.640;2023-04-19T07:47:19;96251.94;;;7.64;82.79
31775;BME280;66189;49.000;11.640;2023-04-19T07:49:19;96250.97;;;7.69;82.22
31775;BME280;66189;49.000;11.640;2023-04-19T07:51:20;96249.97;;;7.74;82.16
31775;BME280;66189;49.000;11.640;2023-04-19T07:53:22;96246.44;;;7.82;82.92
31775;BME280;66189;49.000;11.640;2023-04-19T07:55:23;96246.63;;;7.77;82.81
31775;BME280;66189;49.000;11.640;2023-04-19T07:57:23;96241.50;;;7.84;82.69
31775;BME280;66189;49.000;11.640;2023-04-19T07:59:23;96242.06;;;7.77;82.46
31775;BME280;66189;49.000;11.640;2023-04-19T08:01:23;96236.00;;;7.68;81.78
31775;BME280;66189;49.000;11.640;2023-04-19T08:03:24;96240.13;;;7.65;82.96
31775;BME280;66189;49.000;11.640;2023-04-19T08:05:24;96240.13;;;7.65;82.75
31775;BME280;66189;49.000;11.640;2023-04-19T08:07:25;96246.22;;;7.54;82.70
31775;BME280;66189;49.000;11.640;2023-04-19T08:09:25;96239.44;;;7.56;82.89
31775;BME280;66189;49.000;11.640;2023-04-19T08:11:26;96245.81;;;7.64;83.34
31775;BME280;66189;49.000;11.640;2023-04-19T08:13:26;96240.34;;;7.73;83.66
31775;BME280;66189;49.000;11.640;2023-04-19T08:15:27;96244.50;;;7.70;83.65
31775;BME280;66189;49.000;11.640;2023-04-19T08:17:27;96245.72;;;7.73;84.07
31775;BME280;66189;49.000;11.640;2023-04-19T08:19:27;96242.84;;;7.78;83.82
31775;BME280;66189;49.000;11.640;2023-04-19T08:21:28;96238.41;;;7.82;83.61
31775;BME280;66189;49.000;11.640;2023-04-19T08:23:28;96241.50;;;7.84;83.64
31775;BME280;66189;49.000;11.640;2023-04-19T08:25:28;96243.84;;;7.86;83.99
31775;BME280;66189;49.000;11.640;2023-04-19T08:27:28;96235.50;;;7.87;84.17
31775;BME280;66189;49.000;11.640;2023-04-19T08:29:29;96228.38;;;7.91;84.45
31775;BME280;66189;49.000;11.640;2023-04-19T08:31:29;96232.91;;;7.91;84.02
31775;BME280;66189;49.000;11.640;2023-04-19T08:33:30;96227.13;;;7.89;84.10
31775;BME280;66189;49.000;11.640;2023-04-19T08:35:30;96236.38;;;7.79;84.17
31775;BME280;66189;49.000;11.640;2023-04-19T08:37:30;96239.94;;;7.83;84.65
31775;BME280;66189;49.000;11.640;2023-04-19T08:39:31;96229.22;;;7.83;84.66
31775;BME280;66189;49.000;11.640;2023-04-19T08:41:31;96235.25;;;7.80;84.41
31775;BME280;66189;49.000;11.640;2023-04-19T08:43:33;96232.81;;;7.87;84.68
31775;BME280;66189;49.000;11.640;2023-04-19T08:45:34;96227.47;;;7.87;84.54
31775;BME280;66189;49.000;11.640;2023-04-19T08:47:36;96229.81;;;7.89;84.58
31775;BME280;66189;49.000;11.640;2023-04-19T08:49:38;96230.38;;;7.94;84.83
31775;BME280;66189;49.000;11.640;2023-04-19T08:51:38;96218.31;;;7.88;84.99
31775;BME280;66189;49.000;11.640;2023-04-19T08:53:39;96226.69;;;7.99;84.75
31775;BME280;66189;49.000;11.640;2023-04-19T08:55:40;96217.84;;;7.98;84.68
31775;BME280;66189;49.000;11.640;2023-04-19T08:57:41;96217.75;;;8.07;85.08
31775;BME280;66189;49.000;11.640;2023-04-19T08:59:41;96214.41;;;8.10;85.00
31775;BME280;66189;49.000;11.640;2023-04-19T09:01:44;96218.31;;;8.13;84.74
31775;BME280;66189;49.000;11.640;2023-04-19T09:03:45;96215.22;;;8.11;85.00
31775;BME280;66189;49.000;11.640;2023-04-19T09:05:45;96216.66;;;8.08;84.59
31775;BME280;66189;49.000;11.640;2023-04-19T09:07:46;96211.97;;;8.05;84.75
31775;BME280;66189;49.000;11.640;2023-04-19T09:09:46;96212.41;;;8.07;84.54
31775;BME280;66189;49.000;11.640;2023-04-19T09:12:03;96204.84;;;8.09;84.81
31775;BME280;66189;49.000;11.640;2023-04-19T09:14:15;96208.88;;;7.70;84.71
31775;BME280;66189;49.000;11.640;2023-04-19T09:16:21;96208.25;;;7.85;84.95
31775;BME280;66189;49.000;11.640;2023-04-19T09:18:22;96208.81;;;7.91;84.79
31775;BME280;66189;49.000;11.640;2023-04-19T09:20:34;96208.13;;;7.81;84.90
31775;BME280;66189;49.000;11.640;2023-04-19T09:22:35;96207.34;;;7.81;85.17
31775;BME280;66189;49.000;11.640;2023-04-19T09:24:38;96203.09;;;7.80;85.53
31775;BME280;66189;49.000;11.640;2023-04-19T09:26:38;96203.09;;;7.80;86.04
31775;BME280;66189;49.000;11.640;2023-04-19T09:28:39;96195.31;;;7.75;85.76
31775;BME280;66189;49.000;11.640;2023-04-19T09:30:39;96200.75;;;7.66;85.99
31775;BME280;66189;49.000;11.640;2023-04-19T09:32:46;96203.31;;;7.62;86.18
31775;BME280;66189;49.000;11.640;2023-04-19T09:35:05;96199.06;;;7.61;86.50
31775;BME280;66189;49.000;11.640;2023-04-19T09:37:12;96201.31;;;7.59;86.18
31775;BME280;66189;49.000;11.640;2023-04-19T09:39:13;96191.81;;;7.62;87.45
31775;BME280;66189;49.000;11.640;2023-04-19T09:41:13;96186.44;;;7.62;86.68
31775;BME280;66189;49.000;11.640;2023-04-19T09:43:14;96187.22;;;7.50;86.34
31775;BME280;66189;49.000;11.640;2023-04-19T09:45:22;96188.44;;;7.53;87.18
31775;BME280;66189;49.000;11.640;2023-04-19T09:47:26;96193.28;;;7.59;87.32
31775;BME280;66189;49.000;11.640;2023-04-19T09:49:26;96188.66;;;7.47;87.00
31775;BME280;66189;49.000;11.640;2023-04-19T09:51:38;96189.00;;;7.46;87.17
31775;BME280;66189;49.000;11.640;2023-04-19T09:53:39;96181.97;;;7.54;87.58
31775;BME280;66189;49.000;11.640;2023-04-19T09:55:39;96183.44;;;7.63;87.88
31775;BME280;66189;49.000;11.640;2023-04-19T09:57:41;96191.38;;;7.60;87.73
31775;BME280;66189;49.000;11.640;2023-04-19T09:59:41;96186.44;;;7.62;87.53
31775;BME280;66189;49.000;11.640;2023-04-19T10:01:42;96179.44;;;7.70;87.09
31775;BME280;66189;49.000;11.640;2023-04-19T10:03:43;96175.63;;;7.58;87.44
31775;BME280;66189;49.000;11.640;2023-04-19T10:05:45;96186.78;;;7.60;87.57
31775;BME280;66189;49.000;11.640;2023-04-19T10:07:45;96174.97;;;7.61;87.53
31775;BME280;66189;49.000;11.640;2023-04-19T10:09:45;96182.22;;;7.61;87.51
31775;BME280;66189;49.000;11.640;2023-04-19T10:11:48;96178.63;;;7.57;86.54
31775;BME280;66189;49.000;11.640;2023-04-19T10:13:48;96173.94;;;7.54;86.90
31775;BME280;66189;49.000;11.640;2023-04-19T10:15:52;96165.91;;;7.54;86.68
31775;BME280;66189;49.000;11.640;2023-04-19T10:17:54;96172.50;;;7.56;86.57
31775;BME280;66189;49.000;11.640;2023-04-19T10:20:00;96174.53;;;7.59;86.74
31775;BME280;66189;49.000;11.640;2023-04-19T10:22:05;96165.84;;;7.62;86.74
31775;BME280;66189;49.000;11.640;2023-04-19T10:24:07;96171.53;;;7.61;86.87
31775;BME280;66189;49.000;11.640;2023-04-19T10:26:08;96169.50;;;7.58;86.85
31775;BME280;66189;49.000;11.640;2023-04-19T10:28:08;96166.69;;;7.54;85.77
31775;BME280;66189;49.000;11.640;2023-04-19T10:30:15;96166.16;;;7.49;85.72
31775;BME280;66189;49.000;11.640;2023-04-19T10:32:17;96165.09;;;7.41;85.98
31775;BME280;66189;49.000;11.640;2023-04-19T10:34:35;96169.81;;;7.44;85.77
31775;BME280;66189;49.000;11.640;2023-04-19T10:36:35;96167.13;;;7.44;85.08
31775;BME280;66189;49.000;11.640;2023-04-19T10:38:37;96154.84;;;7.43;85.15
31775;BME280;66189;49.000;11.640;2023-04-19T10:45:31;96155.13;;;7.17;86.61
31775;BME280;66189;49.000;11.640;2023-04-19T10:47:44;96147.44;;;7.15;86.23
31775;BME280;66189;49.000;11.640;2023-04-19T10:49:44;96149.38;;;7.06;86.31